sensor_id;sensor_type;location;lat;lon;timestamp;P1;durP1;ratioP1;P2;durP2;ratioP2
21420;SDS011;10871;50.144;8.428;2023-03-11T00:00:25;4.00;;;1.90;;
21420;SDS011;10871;50.144;8.428;2023-03-11T00:02:53;2.00;;;1.80;;
21420;SDS011;10871;50.144;8.428;2023-03-11T00:05:21;4.35;;;1.73;;
21420;SDS011;10871;50.144;8.428;2023-03-11T00:07:49;1.95;;;1.85;;
21420;SDS011;10871;50.144;8.428;2023-03-11T00:10:16;2.65;;;1.92;;
21420;SDS011;10871;50.144;8.428;2023-03-11T00:12:43;1.92;;;1.70;;
21420;SDS011;10871;50.144;8.428;2023-03-11T00:15:09;2.53;;;2.05;;
21420;SDS011;10871;50.144;8.428;2023-03-11T00:17:36;3.72;;;1.85;;
21420;SDS011;10871;50.144;8.428;2023-03-11T00:20:03;4.28;;;1.98;;
21420;SDS011;10871;50.144;8.428;2023-03-11T00:22:30;2.30;;;1.80;;
21420;SDS011;10871;50.144;8.428;2023-03-11T00:24:59;2.92;;;1.83;;
21420;SDS011;10871;50.144;8.428;2023-03-11T00:27:25;2.70;;;1.70;;
21420;SDS011;10871;50.144;8.428;2023-03-11T00:29:51;4.60;;;1.80;;
21420;SDS011;10871;50.144;8.428;2023-03-11T00:32:18;5.28;;;1.77;;
21420;SDS011;10871;50.144;8.428;2023-03-11T00:34:45;3.22;;;1.48;;
21420;SDS011;10871;50.144;8.428;2023-03-11T00:37:11;2.97;;;1.70;;
21420;SDS011;10871;50.144;8.428;2023-03-11T00:39:38;2.35;;;1.73;;
21420;SDS011;10871;50.144;8.428;2023-03-11T00:42:05;5.20;;;1.90;;
21420;SDS011;10871;50.144;8.428;2023-03-11T00:44:33;5.95;;;2.05;;
21420;SDS011;10871;50.144;8.428;2023-03-11T00:46:59;2.47;;;1.67;;
21420;SDS011;10871;50.144;8.428;2023-03-11T00:49:26;2.28;;;1.67;;
21420;SDS011;10871;50.144;8.428;2023-03-11T00:51:52;3.83;;;1.88;;
21420;SDS011;10871;50.144;8.428;2023-03-11T00:54:19;4.82;;;1.90;;
21420;SDS011;10871;50.144;8.428;2023-03-11T00:56:46;3.67;;;1.70;;
21420;SDS011;10871;50.144;8.428;2023-03-11T00:59:12;2.72;;;1.70;;
21420;SDS011;10871;50.144;8.428;2023-03-11T01:01:39;2.25;;;1.75;;
21420;SDS011;10871;50.144;8.428;2023-03-11T01:04:06;2.92;;;1.63;;
21420;SDS011;10871;50.144;8.428;2023-03-11T01:06:33;2.95;;;1.73;;
21420;SDS011;10871;50.144;8.428;2023-03-11T01:09:10;3.47;;;1.80;;
21420;SDS011;10871;50.144;8.428;2023-03-11T01:11:37;2.45;;;1.50;;
21420;SDS011;10871;50.144;8.428;2023-03-11T01:14:03;6.50;;;1.42;;
21420;SDS011;10871;50.144;8.428;2023-03-11T01:16:30;7.22;;;1.95;;
21420;SDS011;10871;50.144;8.428;2023-03-11T01:18:57;4.28;;;1.80;;
21420;SDS011;10871;50.144;8.428;2023-03-11T01:21:23;7.05;;;1.80;;
21420;SDS011;10871;50.144;8.428;2023-03-11T01:23:50;3.78;;;1.83;;
21420;SDS011;10871;50.144;8.428;2023-03-11T01:26:16;6.72;;;1.80;;
21420;SDS011;10871;50.144;8.428;2023-03-11T01:28:43;4.25;;;1.80;;
21420;SDS011;10871;50.144;8.428;2023-03-11T01:31:09;3.97;;;2.08;;
21420;SDS011;10871;50.144;8.428;2023-03-11T01:33:36;3.20;;;1.70;;
21420;SDS011;10871;50.144;8.428;2023-03-11T01:36:04;3.58;;;1.85;;
21420;SDS011;10871;50.144;8.428;2023-03-11T01:38:30;7.45;;;1.92;;
21420;SDS011;10871;50.144;8.428;2023-03-11T01:40:57;5.95;;;1.70;;
21420;SDS011;10871;50.144;8.428;2023-03-11T01:43:35;5.32;;;2.05;;
21420;SDS011;10871;50.144;8.428;2023-03-11T01:48:34;5.95;;;2.35;;
21420;SDS011;10871;50.144;8.428;2023-03-11T01:51:01;6.43;;;1.83;;
21420;SDS011;10871;50.144;8.428;2023-03-11T01:53:27;4.88;;;1.80;;
21420;SDS011;10871;50.144;8.428;2023-03-11T01:55:54;5.43;;;1.90;;
21420;SDS011;10871;50.144;8.428;2023-03-11T01:58:24;4.43;;;1.90;;
21420;SDS011;10871;50.144;8.428;2023-03-11T02:00:52;3.47;;;1.67;;
21420;SDS011;10871;50.144;8.428;2023-03-11T02:03:29;6.60;;;2.10;;
21420;SDS011;10871;50.144;8.428;2023-03-11T02:06:02;7.60;;;2.30;;
21420;SDS011;10871;50.144;8.428;2023-03-11T02:08:30;10.05;;;1.98;;
21420;SDS011;10871;50.144;8.428;2023-03-11T02:11:01;5.57;;;2.08;;
21420;SDS011;10871;50.144;8.428;2023-03-11T02:13:29;3.70;;;1.83;;
21420;SDS011;10871;50.144;8.428;2023-03-11T02:15:57;4.63;;;2.10;;
21420;SDS011;10871;50.144;8.428;2023-03-11T02:18:26;4.82;;;2.00;;
21420;SDS011;10871;50.144;8.428;2023-03-11T02:23:48;6.47;;;2.05;;
21420;SDS011;10871;50.144;8.428;2023-03-11T02:26:59;5.22;;;2.00;;
21420;SDS011;10871;50.144;8.428;2023-03-11T02:29:06;4.75;;;1.88;;
21420;SDS011;10871;50.144;8.428;2023-03-11T02:31:34;7.95;;;1.90;;
21420;SDS011;10871;50.144;8.428;2023-03-11T02:34:02;5.22;;;2.10;;
21420;SDS011;10871;50.144;8.428;2023-03-11T02:36:38;9.38;;;2.00;;
21420;SDS011;10871;50.144;8.428;2023-03-11T02:39:08;7.15;;;2.03;;
21420;SDS011;10871;50.144;8.428;2023-03-11T02:41:37;5.15;;;2.47;;
21420;SDS011;10871;50.144;8.428;2023-03-11T02:44:04;6.05;;;1.90;;
21420;SDS011;10871;50.144;8.428;2023-03-11T02:46:33;3.28;;;1.73;;
21420;SDS011;10871;50.144;8.428;2023-03-11T02:48:59;5.82;;;1.95;;
21420;SDS011;10871;50.144;8.428;2023-03-11T02:51:26;9.20;;;1.88;;
21420;SDS011;10871;50.144;8.428;2023-03-11T02:53:54;2.75;;;1.70;;
21420;SDS011;10871;50.144;8.428;2023-03-11T02:56:22;2.47;;;1.48;;
21420;SDS011;10871;50.144;8.428;2023-03-11T02:58:49;4.13;;;1.83;;
21420;SDS011;10871;50.144;8.428;2023-03-11T03:01:15;8.88;;;1.85;;
21420;SDS011;10871;50.144;8.428;2023-03-11T03:03:44;5.70;;;1.80;;
21420;SDS011;10871;50.144;8.428;2023-03-11T03:06:11;3.60;;;1.60;;
21420;SDS011;10871;50.144;8.428;2023-03-11T03:08:37;7.93;;;1.92;;
21420;SDS011;10871;50.144;8.428;2023-03-11T03:11:04;8.45;;;2.10;;
21420;SDS011;10871;50.144;8.428;2023-03-11T03:13:30;5.78;;;1.83;;
21420;SDS011;10871;50.144;8.428;2023-03-11T03:15:57;7.20;;;1.85;;
21420;SDS011;10871;50.144;8.428;2023-03-11T03:18:24;6.00;;;2.30;;
21420;SDS011;10871;50.144;8.428;2023-03-11T03:20:51;7.45;;;1.70;;
21420;SDS011;10871;50.144;8.428;2023-03-11T03:23:18;6.65;;;2.20;;
21420;SDS011;10871;50.144;8.428;2023-03-11T03:25:45;3.05;;;1.73;;
21420;SDS011;10871;50.144;8.428;2023-03-11T03:28:12;3.28;;;1.60;;
21420;SDS011;10871;50.144;8.428;2023-03-11T03:30:42;4.32;;;1.90;;
21420;SDS011;10871;50.144;8.428;2023-03-11T03:33:10;6.90;;;2.08;;
21420;SDS011;10871;50.144;8.428;2023-03-11T03:35:39;4.88;;;1.90;;
21420;SDS011;10871;50.144;8.428;2023-03-11T03:38:10;4.57;;;2.17;;
21420;SDS011;10871;50.144;8.428;2023-03-11T03:40:38;6.82;;;2.25;;
21420;SDS011;10871;50.144;8.428;2023-03-11T03:43:05;5.93;;;2.47;;
21420;SDS011;10871;50.144;8.428;2023-03-11T03:45:34;6.20;;;2.20;;
21420;SDS011;10871;50.144;8.428;2023-03-11T03:48:00;6.95;;;2.20;;
21420;SDS011;10871;50.144;8.428;2023-03-11T03:50:30;4.57;;;2.10;;
21420;SDS011;10871;50.144;8.428;2023-03-11T03:52:57;12.48;;;2.60;;
21420;SDS011;10871;50.144;8.428;2023-03-11T03:55:24;10.65;;;3.28;;
21420;SDS011;10871;50.144;8.428;2023-03-11T03:57:52;9.40;;;2.78;;
21420;SDS011;10871;50.144;8.428;2023-03-11T04:00:23;5.00;;;2.40;;
21420;SDS011;10871;50.144;8.428;2023-03-11T04:02:55;4.50;;;2.50;;
21420;SDS011;10871;50.144;8.428;2023-03-11T04:05:33;7.55;;;2.50;;
21420;SDS011;10871;50.144;8.428;2023-03-11T04:07:59;5.00;;;2.47;;
21420;SDS011;10871;50.144;8.428;2023-03-11T04:10:26;5.68;;;2.40;;
21420;SDS011;10871;50.144;8.428;2023-03-11T04:12:53;5.45;;;2.75;;
21420;SDS011;10871;50.144;8.428;2023-03-11T04:15:20;5.97;;;2.45;;
21420;SDS011;10871;50.144;8.428;2023-03-11T04:17:47;8.77;;;2.90;;
21420;SDS011;10871;50.144;8.428;2023-03-11T04:20:13;4.07;;;2.17;;
21420;SDS011;10871;50.144;8.428;2023-03-11T04:22:44;4.75;;;2.58;;
21420;SDS011;10871;50.144;8.428;2023-03-11T04:25:10;8.23;;;3.08;;
21420;SDS011;10871;50.144;8.428;2023-03-11T04:27:37;8.60;;;2.80;;
21420;SDS011;10871;50.144;8.428;2023-03-11T04:30:12;6.15;;;2.67;;
21420;SDS011;10871;50.144;8.428;2023-03-11T04:32:40;5.57;;;2.67;;
21420;SDS011;10871;50.144;8.428;2023-03-11T04:35:08;8.73;;;3.30;;
21420;SDS011;10871;50.144;8.428;2023-03-11T04:37:34;8.63;;;3.10;;
21420;SDS011;10871;50.144;8.428;2023-03-11T04:40:01;7.97;;;2.83;;
21420;SDS011;10871;50.144;8.428;2023-03-11T04:42:29;11.82;;;3.00;;
21420;SDS011;10871;50.144;8.428;2023-03-11T04:44:56;6.20;;;3.10;;
21420;SDS011;10871;50.144;8.428;2023-03-11T04:47:24;9.27;;;2.72;;
21420;SDS011;10871;50.144;8.428;2023-03-11T04:49:51;6.85;;;2.80;;
21420;SDS011;10871;50.144;8.428;2023-03-11T04:52:17;5.75;;;2.83;;
21420;SDS011;10871;50.144;8.428;2023-03-11T04:54:45;8.82;;;3.03;;
21420;SDS011;10871;50.144;8.428;2023-03-11T04:57:12;5.60;;;2.60;;
21420;SDS011;10871;50.144;8.428;2023-03-11T04:59:41;7.22;;;2.63;;
21420;SDS011;10871;50.144;8.428;2023-03-11T05:02:09;11.18;;;2.92;;
21420;SDS011;10871;50.144;8.428;2023-03-11T05:04:41;6.50;;;2.92;;
21420;SDS011;10871;50.144;8.428;2023-03-11T05:07:08;10.02;;;2.88;;
21420;SDS011;10871;50.144;8.428;2023-03-11T05:09:35;9.13;;;3.00;;
21420;SDS011;10871;50.144;8.428;2023-03-11T05:12:02;9.38;;;3.33;;
21420;SDS011;10871;50.144;8.428;2023-03-11T05:14:31;7.78;;;2.70;;
21420;SDS011;10871;50.144;8.428;2023-03-11T05:16:58;12.40;;;3.00;;
21420;SDS011;10871;50.144;8.428;2023-03-11T05:19:25;9.30;;;2.67;;
21420;SDS011;10871;50.144;8.428;2023-03-11T05:22:07;6.47;;;2.42;;
21420;SDS011;10871;50.144;8.428;2023-03-11T05:24:35;7.82;;;2.65;;
21420;SDS011;10871;50.144;8.428;2023-03-11T05:27:02;10.05;;;2.60;;
21420;SDS011;10871;50.144;8.428;2023-03-11T05:29:31;11.02;;;2.70;;
21420;SDS011;10871;50.144;8.428;2023-03-11T05:31:57;9.45;;;3.10;;
21420;SDS011;10871;50.144;8.428;2023-03-11T05:34:24;6.25;;;2.65;;
21420;SDS011;10871;50.144;8.428;2023-03-11T05:36:53;6.70;;;3.25;;
21420;SDS011;10871;50.144;8.428;2023-03-11T05:39:21;7.13;;;2.95;;
21420;SDS011;10871;50.144;8.428;2023-03-11T05:41:48;9.88;;;3.03;;
21420;SDS011;10871;50.144;8.428;2023-03-11T05:44:15;9.77;;;2.85;;
21420;SDS011;10871;50.144;8.428;2023-03-11T05:46:42;8.48;;;3.00;;
21420;SDS011;10871;50.144;8.428;2023-03-11T05:49:09;6.57;;;3.17;;
21420;SDS011;10871;50.144;8.428;2023-03-11T05:51:36;7.05;;;2.80;;
21420;SDS011;10871;50.144;8.428;2023-03-11T05:54:03;10.73;;;3.13;;
21420;SDS011;10871;50.144;8.428;2023-03-11T05:56:36;5.83;;;2.37;;
21420;SDS011;10871;50.144;8.428;2023-03-11T05:59:03;10.98;;;3.60;;
21420;SDS011;10871;50.144;8.428;2023-03-11T06:01:33;6.03;;;3.03;;
21420;SDS011;10871;50.144;8.428;2023-03-11T06:03:59;17.00;;;3.42;;
21420;SDS011;10871;50.144;8.428;2023-03-11T06:06:27;7.13;;;3.30;;
21420;SDS011;10871;50.144;8.428;2023-03-11T06:08:54;11.95;;;3.40;;
21420;SDS011;10871;50.144;8.428;2023-03-11T06:11:22;10.80;;;3.47;;
21420;SDS011;10871;50.144;8.428;2023-03-11T06:13:53;9.85;;;3.53;;
21420;SDS011;10871;50.144;8.428;2023-03-11T06:16:22;11.30;;;3.40;;
21420;SDS011;10871;50.144;8.428;2023-03-11T06:18:49;7.97;;;3.08;;
21420;SDS011;10871;50.144;8.428;2023-03-11T06:21:20;11.48;;;3.47;;
21420;SDS011;10871;50.144;8.428;2023-03-11T06:23:48;14.05;;;3.47;;
21420;SDS011;10871;50.144;8.428;2023-03-11T06:26:16;4.10;;;2.42;;
21420;SDS011;10871;50.144;8.428;2023-03-11T06:28:45;12.20;;;3.17;;
21420;SDS011;10871;50.144;8.428;2023-03-11T06:31:16;11.48;;;2.92;;
21420;SDS011;10871;50.144;8.428;2023-03-11T06:33:44;7.28;;;2.53;;
21420;SDS011;10871;50.144;8.428;2023-03-11T06:36:14;10.23;;;3.20;;
21420;SDS011;10871;50.144;8.428;2023-03-11T06:38:41;7.38;;;3.00;;
21420;SDS011;10871;50.144;8.428;2023-03-11T06:41:08;7.88;;;2.70;;
21420;SDS011;10871;50.144;8.428;2023-03-11T06:43:36;8.52;;;2.60;;
21420;SDS011;10871;50.144;8.428;2023-03-11T06:46:07;9.50;;;3.15;;
21420;SDS011;10871;50.144;8.428;2023-03-11T06:48:35;9.85;;;3.03;;
21420;SDS011;10871;50.144;8.428;2023-03-11T06:51:02;8.75;;;2.47;;
21420;SDS011;10871;50.144;8.428;2023-03-11T06:53:29;11.82;;;2.70;;
21420;SDS011;10871;50.144;8.428;2023-03-11T06:56:00;4.00;;;2.53;;
21420;SDS011;10871;50.144;8.428;2023-03-11T06:58:30;5.97;;;2.17;;
21420;SDS011;10871;50.144;8.428;2023-03-11T07:01:00;7.50;;;2.55;;
21420;SDS011;10871;50.144;8.428;2023-03-11T07:03:28;8.75;;;2.25;;
21420;SDS011;10871;50.144;8.428;2023-03-11T07:05:55;8.43;;;2.20;;
21420;SDS011;10871;50.144;8.428;2023-03-11T07:08:22;8.55;;;2.03;;
21420;SDS011;10871;50.144;8.428;2023-03-11T07:13:46;8.07;;;2.10;;
21420;SDS011;10871;50.144;8.428;2023-03-11T07:16:24;7.43;;;2.30;;
21420;SDS011;10871;50.144;8.428;2023-03-11T07:18:56;8.07;;;1.90;;
21420;SDS011;10871;50.144;8.428;2023-03-11T07:21:24;5.80;;;2.13;;
21420;SDS011;10871;50.144;8.428;2023-03-11T07:23:54;7.30;;;1.90;;
21420;SDS011;10871;50.144;8.428;2023-03-11T07:26:21;8.85;;;2.47;;
21420;SDS011;10871;50.144;8.428;2023-03-11T07:28:49;5.05;;;1.98;;
21420;SDS011;10871;50.144;8.428;2023-03-11T07:31:17;7.57;;;2.70;;
21420;SDS011;10871;50.144;8.428;2023-03-11T07:33:45;9.02;;;2.55;;
21420;SDS011;10871;50.144;8.428;2023-03-11T07:36:19;10.27;;;2.65;;
21420;SDS011;10871;50.144;8.428;2023-03-11T07:38:46;10.40;;;2.35;;
21420;SDS011;10871;50.144;8.428;2023-03-11T07:41:13;6.40;;;2.58;;
21420;SDS011;10871;50.144;8.428;2023-03-11T07:43:40;6.57;;;2.25;;
21420;SDS011;10871;50.144;8.428;2023-03-11T07:46:11;7.78;;;2.20;;
21420;SDS011;10871;50.144;8.428;2023-03-11T07:48:38;8.98;;;2.28;;
21420;SDS011;10871;50.144;8.428;2023-03-11T07:51:06;5.07;;;1.80;;
21420;SDS011;10871;50.144;8.428;2023-03-11T07:53:33;8.13;;;2.22;;
21420;SDS011;10871;50.144;8.428;2023-03-11T07:56:00;4.72;;;2.00;;
21420;SDS011;10871;50.144;8.428;2023-03-11T07:58:28;9.85;;;2.30;;
21420;SDS011;10871;50.144;8.428;2023-03-11T08:00:55;8.23;;;2.05;;
21420;SDS011;10871;50.144;8.428;2023-03-11T08:03:23;8.23;;;2.60;;
21420;SDS011;10871;50.144;8.428;2023-03-11T08:05:50;9.77;;;2.35;;
21420;SDS011;10871;50.144;8.428;2023-03-11T08:08:16;5.43;;;1.92;;
21420;SDS011;10871;50.144;8.428;2023-03-11T08:10:43;11.75;;;2.63;;
21420;SDS011;10871;50.144;8.428;2023-03-11T08:13:09;6.28;;;2.10;;
21420;SDS011;10871;50.144;8.428;2023-03-11T08:15:36;5.75;;;2.38;;
21420;SDS011;10871;50.144;8.428;2023-03-11T08:18:03;10.43;;;2.60;;
21420;SDS011;10871;50.144;8.428;2023-03-11T08:20:30;6.63;;;2.20;;
21420;SDS011;10871;50.144;8.428;2023-03-11T08:22:57;6.75;;;2.20;;
21420;SDS011;10871;50.144;8.428;2023-03-11T08:25:24;7.72;;;2.60;;
21420;SDS011;10871;50.144;8.428;2023-03-11T08:27:50;5.72;;;3.17;;
21420;SDS011;10871;50.144;8.428;2023-03-11T08:30:17;6.57;;;2.72;;
21420;SDS011;10871;50.144;8.428;2023-03-11T08:32:43;5.70;;;2.40;;
21420;SDS011;10871;50.144;8.428;2023-03-11T08:35:10;8.85;;;3.03;;
21420;SDS011;10871;50.144;8.428;2023-03-11T08:37:36;11.35;;;2.97;;
21420;SDS011;10871;50.144;8.428;2023-03-11T08:40:03;6.93;;;2.60;;
21420;SDS011;10871;50.144;8.428;2023-03-11T08:42:30;6.95;;;2.80;;
21420;SDS011;10871;50.144;8.428;2023-03-11T08:44:57;8.32;;;2.80;;
21420;SDS011;10871;50.144;8.428;2023-03-11T08:47:23;6.38;;;2.30;;
21420;SDS011;10871;50.144;8.428;2023-03-11T08:49:50;7.85;;;2.45;;
21420;SDS011;10871;50.144;8.428;2023-03-11T08:52:16;8.65;;;2.90;;
21420;SDS011;10871;50.144;8.428;2023-03-11T08:54:43;6.28;;;3.33;;
21420;SDS011;10871;50.144;8.428;2023-03-11T08:57:09;4.65;;;2.35;;
21420;SDS011;10871;50.144;8.428;2023-03-11T08:59:36;4.50;;;2.38;;
21420;SDS011;10871;50.144;8.428;2023-03-11T09:02:02;5.68;;;2.55;;
21420;SDS011;10871;50.144;8.428;2023-03-11T09:04:29;6.03;;;2.28;;
21420;SDS011;10871;50.144;8.428;2023-03-11T09:06:56;4.38;;;2.45;;
21420;SDS011;10871;50.144;8.428;2023-03-11T09:09:23;7.07;;;2.30;;
21420;SDS011;10871;50.144;8.428;2023-03-11T09:11:49;6.25;;;2.38;;
21420;SDS011;10871;50.144;8.428;2023-03-11T09:14:16;7.22;;;2.75;;
21420;SDS011;10871;50.144;8.428;2023-03-11T09:16:43;6.05;;;2.35;;
21420;SDS011;10871;50.144;8.428;2023-03-11T09:19:09;5.55;;;2.30;;
21420;SDS011;10871;50.144;8.428;2023-03-11T09:21:36;4.93;;;2.60;;
21420;SDS011;10871;50.144;8.428;2023-03-11T09:24:03;4.30;;;2.10;;
21420;SDS011;10871;50.144;8.428;2023-03-11T09:26:30;4.60;;;2.53;;
21420;SDS011;10871;50.144;8.428;2023-03-11T09:28:57;4.95;;;2.10;;
21420;SDS011;10871;50.144;8.428;2023-03-11T09:31:23;6.97;;;2.42;;
21420;SDS011;10871;50.144;8.428;2023-03-11T09:33:50;3.90;;;2.13;;
21420;SDS011;10871;50.144;8.428;2023-03-11T09:36:19;6.90;;;2.45;;
21420;SDS011;10871;50.144;8.428;2023-03-11T09:38:46;4.80;;;2.10;;
21420;SDS011;10871;50.144;8.428;2023-03-11T09:51:44;4.60;;;3.67;;
21420;SDS011;10871;50.144;8.428;2023-03-11T09:54:13;5.00;;;2.45;;
21420;SDS011;10871;50.144;8.428;2023-03-11T09:56:40;12.63;;;10.55;;
21420;SDS011;10871;50.144;8.428;2023-03-11T09:59:14;6.57;;;4.47;;
21420;SDS011;10871;50.144;8.428;2023-03-11T10:01:43;6.07;;;1.83;;
21420;SDS011;10871;50.144;8.428;2023-03-11T10:04:12;7.80;;;2.53;;
21420;SDS011;10871;50.144;8.428;2023-03-11T10:06:40;5.82;;;3.90;;
21420;SDS011;10871;50.144;8.428;2023-03-11T10:14:20;6.07;;;1.92;;
21420;SDS011;10871;50.144;8.428;2023-03-11T10:22:10;5.88;;;1.95;;
21420;SDS011;10871;50.144;8.428;2023-03-11T10:27:19;5.50;;;2.03;;
21420;SDS011;10871;50.144;8.428;2023-03-11T10:29:52;3.88;;;1.63;;
21420;SDS011;10871;50.144;8.428;2023-03-11T10:32:27;4.20;;;2.88;;
21420;SDS011;10871;50.144;8.428;2023-03-11T10:35:04;5.47;;;2.85;;
21420;SDS011;10871;50.144;8.428;2023-03-11T10:37:32;7.97;;;3.33;;
21420;SDS011;10871;50.144;8.428;2023-03-11T10:42:51;4.40;;;3.38;;
21420;SDS011;10871;50.144;8.428;2023-03-11T10:45:19;7.80;;;1.90;;
21420;SDS011;10871;50.144;8.428;2023-03-11T10:47:48;4.00;;;2.83;;
21420;SDS011;10871;50.144;8.428;2023-03-11T10:50:16;3.85;;;1.75;;
21420;SDS011;10871;50.144;8.428;2023-03-11T10:55:28;5.28;;;1.70;;
21420;SDS011;10871;50.144;8.428;2023-03-11T10:58:03;5.50;;;3.67;;
21420;SDS011;10871;50.144;8.428;2023-03-11T11:00:31;3.35;;;1.40;;
21420;SDS011;10871;50.144;8.428;2023-03-11T11:02:58;5.38;;;1.42;;
21420;SDS011;10871;50.144;8.428;2023-03-11T11:08:01;4.90;;;1.63;;
21420;SDS011;10871;50.144;8.428;2023-03-11T11:10:28;6.10;;;1.27;;
21420;SDS011;10871;50.144;8.428;2023-03-11T11:12:56;5.22;;;1.45;;
21420;SDS011;10871;50.144;8.428;2023-03-11T11:15:34;3.75;;;1.25;;
21420;SDS011;10871;50.144;8.428;2023-03-11T11:18:23;3.83;;;1.27;;
21420;SDS011;10871;50.144;8.428;2023-03-11T11:20:58;5.40;;;1.33;;
21420;SDS011;10871;50.144;8.428;2023-03-11T11:23:36;3.03;;;1.48;;
21420;SDS011;10871;50.144;8.428;2023-03-11T11:26:05;3.13;;;1.10;;
21420;SDS011;10871;50.144;8.428;2023-03-11T11:28:32;4.63;;;1.55;;
21420;SDS011;10871;50.144;8.428;2023-03-11T11:31:00;5.88;;;2.60;;
21420;SDS011;10871;50.144;8.428;2023-03-11T11:33:28;7.78;;;1.30;;
21420;SDS011;10871;50.144;8.428;2023-03-11T11:35:56;3.97;;;1.30;;
21420;SDS011;10871;50.144;8.428;2023-03-11T11:38:24;3.20;;;1.20;;
21420;SDS011;10871;50.144;8.428;2023-03-11T11:40:52;4.95;;;1.20;;
21420;SDS011;10871;50.144;8.428;2023-03-11T11:46:06;2.38;;;1.20;;
21420;SDS011;10871;50.144;8.428;2023-03-11T11:48:44;4.57;;;1.30;;
21420;SDS011;10871;50.144;8.428;2023-03-11T11:51:15;2.38;;;1.08;;
21420;SDS011;10871;50.144;8.428;2023-03-11T11:53:57;5.00;;;1.52;;
21420;SDS011;10871;50.144;8.428;2023-03-11T11:56:26;5.80;;;1.27;;
21420;SDS011;10871;50.144;8.428;2023-03-11T11:58:53;3.65;;;1.20;;
21420;SDS011;10871;50.144;8.428;2023-03-11T12:01:35;3.80;;;1.27;;
21420;SDS011;10871;50.144;8.428;2023-03-11T12:09:02;3.30;;;1.38;;
21420;SDS011;10871;50.144;8.428;2023-03-11T12:11:35;4.65;;;1.15;;
21420;SDS011;10871;50.144;8.428;2023-03-11T12:14:12;2.58;;;1.00;;
21420;SDS011;10871;50.144;8.428;2023-03-11T12:16:56;3.80;;;1.58;;
21420;SDS011;10871;50.144;8.428;2023-03-11T12:24:34;3.60;;;1.30;;
21420;SDS011;10871;50.144;8.428;2023-03-11T12:27:06;2.63;;;1.30;;
21420;SDS011;10871;50.144;8.428;2023-03-11T12:29:37;4.53;;;1.42;;
21420;SDS011;10871;50.144;8.428;2023-03-11T12:32:06;3.15;;;1.33;;
21420;SDS011;10871;50.144;8.428;2023-03-11T12:34:33;3.15;;;1.48;;
21420;SDS011;10871;50.144;8.428;2023-03-11T12:37:00;2.58;;;1.40;;
21420;SDS011;10871;50.144;8.428;2023-03-11T12:39:31;4.07;;;1.33;;
21420;SDS011;10871;50.144;8.428;2023-03-11T12:44:45;3.55;;;1.50;;
21420;SDS011;10871;50.144;8.428;2023-03-11T12:49:39;2.88;;;1.48;;
21420;SDS011;10871;50.144;8.428;2023-03-11T12:54:46;2.97;;;1.42;;
21420;SDS011;10871;50.144;8.428;2023-03-11T13:00:00;3.65;;;1.40;;
21420;SDS011;10871;50.144;8.428;2023-03-11T13:10:40;4.25;;;1.55;;
21420;SDS011;10871;50.144;8.428;2023-03-11T13:15:50;4.70;;;1.60;;
21420;SDS011;10871;50.144;8.428;2023-03-11T13:18:21;4.65;;;1.50;;
21420;SDS011;10871;50.144;8.428;2023-03-11T13:20:50;4.07;;;1.40;;
21420;SDS011;10871;50.144;8.428;2023-03-11T13:23:21;5.85;;;2.10;;
21420;SDS011;10871;50.144;8.428;2023-03-11T13:33:26;2.70;;;1.48;;
21420;SDS011;10871;50.144;8.428;2023-03-11T13:38:33;6.13;;;1.95;;
21420;SDS011;10871;50.144;8.428;2023-03-11T13:41:12;2.60;;;1.60;;
21420;SDS011;10871;50.144;8.428;2023-03-11T13:43:43;5.18;;;1.80;;
21420;SDS011;10871;50.144;8.428;2023-03-11T13:46:18;2.83;;;1.38;;
21420;SDS011;10871;50.144;8.428;2023-03-11T13:48:50;3.97;;;1.35;;
21420;SDS011;10871;50.144;8.428;2023-03-11T13:51:24;4.90;;;1.23;;
21420;SDS011;10871;50.144;8.428;2023-03-11T13:53:58;3.75;;;1.17;;
21420;SDS011;10871;50.144;8.428;2023-03-11T13:56:28;5.85;;;1.45;;
21420;SDS011;10871;50.144;8.428;2023-03-11T14:01:49;3.17;;;1.48;;
21420;SDS011;10871;50.144;8.428;2023-03-11T14:04:18;5.10;;;1.60;;
21420;SDS011;10871;50.144;8.428;2023-03-11T14:06:46;3.92;;;1.50;;
21420;SDS011;10871;50.144;8.428;2023-03-11T14:09:17;7.68;;;1.55;;
21420;SDS011;10871;50.144;8.428;2023-03-11T14:11:43;5.40;;;1.40;;
21420;SDS011;10871;50.144;8.428;2023-03-11T14:14:23;4.35;;;1.35;;
21420;SDS011;10871;50.144;8.428;2023-03-11T14:16:53;5.80;;;1.48;;
21420;SDS011;10871;50.144;8.428;2023-03-11T14:19:20;4.85;;;1.60;;
21420;SDS011;10871;50.144;8.428;2023-03-11T14:21:49;4.88;;;1.60;;
21420;SDS011;10871;50.144;8.428;2023-03-11T14:24:18;3.00;;;1.40;;
21420;SDS011;10871;50.144;8.428;2023-03-11T14:26:47;3.40;;;1.20;;
21420;SDS011;10871;50.144;8.428;2023-03-11T14:29:15;5.43;;;1.35;;
21420;SDS011;10871;50.144;8.428;2023-03-11T14:31:43;3.53;;;1.50;;
21420;SDS011;10871;50.144;8.428;2023-03-11T14:34:17;5.10;;;1.30;;
21420;SDS011;10871;50.144;8.428;2023-03-11T14:39:25;5.43;;;1.42;;
21420;SDS011;10871;50.144;8.428;2023-03-11T14:44:39;2.80;;;1.60;;
21420;SDS011;10871;50.144;8.428;2023-03-11T14:47:19;4.88;;;1.25;;
21420;SDS011;10871;50.144;8.428;2023-03-11T14:49:48;5.53;;;1.35;;
21420;SDS011;10871;50.144;8.428;2023-03-11T14:52:17;4.40;;;1.75;;
21420;SDS011;10871;50.144;8.428;2023-03-11T14:54:46;2.17;;;1.20;;
21420;SDS011;10871;50.144;8.428;2023-03-11T14:57:20;4.75;;;1.50;;
21420;SDS011;10871;50.144;8.428;2023-03-11T14:59:48;4.30;;;1.13;;
21420;SDS011;10871;50.144;8.428;2023-03-11T15:02:26;3.75;;;1.63;;
21420;SDS011;10871;50.144;8.428;2023-03-11T15:04:55;5.13;;;1.55;;
21420;SDS011;10871;50.144;8.428;2023-03-11T15:07:25;3.80;;;1.50;;
21420;SDS011;10871;50.144;8.428;2023-03-11T15:09:52;2.13;;;1.20;;
21420;SDS011;10871;50.144;8.428;2023-03-11T15:12:33;2.35;;;1.20;;
21420;SDS011;10871;50.144;8.428;2023-03-11T15:14:59;6.22;;;1.33;;
21420;SDS011;10871;50.144;8.428;2023-03-11T15:17:26;4.88;;;1.38;;
21420;SDS011;10871;50.144;8.428;2023-03-11T15:22:57;3.72;;;1.30;;
21420;SDS011;10871;50.144;8.428;2023-03-11T15:25:28;4.60;;;1.65;;
21420;SDS011;10871;50.144;8.428;2023-03-11T15:27:54;4.32;;;1.30;;
21420;SDS011;10871;50.144;8.428;2023-03-11T15:30:29;5.78;;;1.50;;
21420;SDS011;10871;50.144;8.428;2023-03-11T15:32:56;4.07;;;1.42;;
21420;SDS011;10871;50.144;8.428;2023-03-11T15:35:24;4.10;;;1.52;;
21420;SDS011;10871;50.144;8.428;2023-03-11T15:40:36;3.20;;;1.40;;
21420;SDS011;10871;50.144;8.428;2023-03-11T15:45:42;4.53;;;1.30;;
21420;SDS011;10871;50.144;8.428;2023-03-11T15:48:10;3.47;;;1.58;;
21420;SDS011;10871;50.144;8.428;2023-03-11T15:50:49;2.70;;;1.23;;
21420;SDS011;10871;50.144;8.428;2023-03-11T15:53:19;4.97;;;1.52;;
21420;SDS011;10871;50.144;8.428;2023-03-11T15:55:46;4.68;;;1.60;;
21420;SDS011;10871;50.144;8.428;2023-03-11T15:58:14;5.13;;;1.60;;
21420;SDS011;10871;50.144;8.428;2023-03-11T16:00:45;3.70;;;1.30;;
21420;SDS011;10871;50.144;8.428;2023-03-11T16:03:12;3.25;;;1.17;;
21420;SDS011;10871;50.144;8.428;2023-03-11T16:05:39;4.68;;;1.85;;
21420;SDS011;10871;50.144;8.428;2023-03-11T16:08:09;4.47;;;1.90;;
21420;SDS011;10871;50.144;8.428;2023-03-11T16:10:36;4.97;;;1.58;;
21420;SDS011;10871;50.144;8.428;2023-03-11T16:13:02;5.75;;;1.65;;
21420;SDS011;10871;50.144;8.428;2023-03-11T16:15:32;2.53;;;1.67;;
21420;SDS011;10871;50.144;8.428;2023-03-11T16:18:00;5.95;;;1.60;;
21420;SDS011;10871;50.144;8.428;2023-03-11T16:20:28;2.70;;;1.58;;
21420;SDS011;10871;50.144;8.428;2023-03-11T16:22:57;6.00;;;1.58;;
21420;SDS011;10871;50.144;8.428;2023-03-11T16:25:28;5.72;;;1.45;;
21420;SDS011;10871;50.144;8.428;2023-03-11T16:27:56;3.20;;;1.65;;
21420;SDS011;10871;50.144;8.428;2023-03-11T16:30:23;7.07;;;2.40;;
21420;SDS011;10871;50.144;8.428;2023-03-11T16:32:50;5.95;;;1.92;;
21420;SDS011;10871;50.144;8.428;2023-03-11T16:35:17;4.53;;;2.47;;